createdAt,value
2022-11-25T00:46:03.587Z,425.40
2022-11-25T00:51:01.715Z,432.80
2022-11-25T00:56:01.060Z,424.60
2022-11-25T01:01:01.254Z,438.10
2022-11-25T01:05:59.335Z,422.90
2022-11-25T01:10:58.640Z,387.10
2022-11-25T01:15:57.997Z,412.20
2022-11-25T01:20:59.138Z,427.20
2022-11-25T01:25:56.457Z,405.80
2022-11-25T01:30:55.767Z,399.80
2022-11-25T01:35:57.951Z,370.80
2022-11-25T01:40:54.233Z,421.10
2022-11-25T01:45:53.564Z,423.70
2022-11-25T01:50:52.866Z,406.50
2022-11-25T01:55:52.182Z,446.10
2022-11-25T02:00:53.608Z,444.90
2022-11-25T02:05:51.683Z,446.50
2022-11-25T02:10:50.981Z,437.80
2022-11-25T02:15:50.259Z,457.10
2022-11-25T02:20:49.549Z,428.50
2022-11-25T02:25:48.826Z,410.70
2022-11-25T02:30:47.117Z,447.50
2022-11-25T02:35:46.413Z,415.00
2022-11-25T02:40:45.749Z,434.90
2022-11-25T02:45:47.045Z,423.10
2022-11-25T02:50:44.170Z,434.60
2022-11-25T02:55:43.490Z,418.40
2022-11-25T03:00:41.833Z,416.20
2022-11-25T03:05:43.996Z,436.00
2022-11-25T03:10:42.281Z,436.10
2022-11-25T03:15:41.597Z,408.10
2022-11-25T03:20:39.979Z,420.60
2022-11-25T03:25:39.093Z,435.00
2022-11-25T03:30:38.436Z,415.60
2022-11-25T03:35:38.613Z,432.20
2022-11-25T03:40:35.704Z,418.30
2022-11-25T03:45:36.063Z,407.10
2022-11-25T03:50:36.177Z,402.10
2022-11-25T03:55:34.464Z,400.00
2022-11-25T04:00:34.755Z,402.50
2022-11-25T04:05:33.047Z,413.00
2022-11-25T04:10:33.382Z,352.30
2022-11-25T04:15:32.673Z,402.70
2022-11-25T04:20:31.973Z,423.80
2022-11-25T04:25:31.265Z,435.90
2022-11-25T04:30:29.526Z,399.20
2022-11-25T04:35:28.799Z,456.40
2022-11-25T04:40:29.080Z,393.20
2022-11-25T04:45:40.671Z,383.50
2022-11-25T04:50:26.507Z,393.70
2022-11-25T04:55:27.846Z,430.40
2022-11-25T05:00:24.961Z,400.60
2022-11-25T05:05:24.175Z,417.20
2022-11-25T05:10:23.292Z,379.60
2022-11-25T05:15:22.623Z,383.00
2022-11-25T05:20:21.982Z,407.50
2022-11-25T05:25:21.264Z,401.60
2022-11-25T05:30:21.634Z,405.20
2022-11-25T05:35:20.796Z,403.00
2022-11-25T05:40:19.911Z,401.80
2022-11-25T05:45:19.058Z,416.90
2022-11-25T05:50:16.353Z,426.70
2022-11-25T05:55:17.684Z,438.10
2022-11-25T06:00:15.982Z,407.90
2022-11-25T06:05:16.284Z,413.40
2022-11-25T06:10:15.601Z,419.00
2022-11-25T06:15:14.863Z,434.80
2022-11-25T06:20:13.117Z,420.20
2022-11-25T06:25:13.415Z,444.40
2022-11-25T06:30:11.683Z,414.10
2022-11-25T06:35:12.133Z,433.30
2022-11-25T06:40:11.241Z,422.50
2022-11-25T06:45:10.554Z,430.80
2022-11-25T06:50:08.870Z,409.60
2022-11-25T06:55:07.204Z,409.60
2022-11-25T07:00:07.342Z,409.60
2022-11-25T07:05:06.647Z,409.60
2022-11-25T07:10:05.949Z,409.60
2022-11-25T07:15:05.217Z,409.60
2022-11-25T07:20:04.525Z,409.60
2022-11-25T07:25:03.814Z,409.60
2022-11-25T07:30:54.359Z,409.60
2022-11-25T07:35:02.252Z,409.60
2022-11-25T07:40:02.584Z,409.60
2022-11-25T07:45:00.861Z,409.60
2022-11-25T07:50:02.148Z,409.60
2022-11-25T07:55:00.428Z,409.60
2022-11-25T08:00:00.679Z,409.60
2022-11-25T08:04:57.990Z,409.60
2022-11-25T08:09:59.299Z,409.60
2022-11-25T08:14:57.594Z,409.60
2022-11-25T08:19:55.890Z,409.60
2022-11-25T08:24:56.193Z,409.60
2022-11-25T08:29:54.505Z,409.60
2022-11-25T08:34:53.818Z,409.60
2022-11-25T08:39:54.237Z,409.60
2022-11-25T08:44:53.531Z,409.60
2022-11-25T08:49:53.621Z,409.60
2022-11-25T08:54:51.016Z,409.60
2022-11-25T08:59:50.087Z,409.60
2022-11-25T09:04:50.373Z,409.60
2022-11-25T09:09:49.671Z,409.60
2022-11-25T09:14:47.957Z,409.60
2022-11-25T09:19:48.267Z,409.60
2022-11-25T09:24:46.551Z,409.60
2022-11-25T09:29:46.864Z,409.60
2022-11-25T09:34:45.183Z,409.60
2022-11-25T09:39:45.473Z,409.60
2022-11-25T09:44:43.849Z,409.60
2022-11-25T09:49:43.931Z,409.60
2022-11-25T09:54:43.218Z,409.60
2022-11-25T09:59:41.533Z,418.40
2022-11-25T10:04:41.857Z,422.50
2022-11-25T10:09:40.098Z,424.60
2022-11-25T10:14:38.342Z,437.70
2022-11-25T10:19:38.722Z,429.60
2022-11-25T10:24:41.422Z,406.20
2022-11-25T10:29:36.876Z,416.00
2022-11-25T10:34:37.384Z,422.30
2022-11-25T10:39:35.404Z,417.60
2022-11-25T10:44:36.015Z,426.40
2022-11-25T10:49:35.043Z,418.90
2022-11-25T10:54:33.352Z,427.70
2022-11-25T10:59:32.650Z,431.80
2022-11-25T11:04:32.987Z,410.90
2022-11-25T11:09:31.132Z,426.80
2022-11-25T11:14:31.464Z,388.90
2022-11-25T11:19:29.770Z,419.30
2022-11-25T11:24:31.121Z,410.40
2022-11-25T11:29:29.422Z,420.20
2022-11-25T11:34:30.743Z,410.00
2022-11-25T11:39:28.056Z,430.60
2022-11-25T11:44:26.381Z,424.40
2022-11-25T11:49:30.580Z,411.60
2022-11-25T11:54:25.999Z,405.90
2022-11-25T11:59:27.327Z,409.70
2022-11-25T12:04:24.639Z,372.20
2022-11-25T12:09:22.954Z,381.10
2022-11-25T12:14:24.303Z,409.70
2022-11-25T12:19:21.599Z,419.60
2022-11-25T12:24:20.921Z,395.50
2022-11-25T12:29:21.231Z,415.00
2022-11-25T12:34:19.561Z,381.80
2022-11-25T12:39:19.871Z,379.90
2022-11-25T12:44:19.180Z,399.00
2022-11-25T12:49:17.801Z,419.60
2022-11-25T12:54:16.724Z,423.50
2022-11-25T12:59:15.843Z,425.30
2022-11-25T13:04:16.160Z,419.40
2022-11-25T13:09:14.451Z,427.70
2022-11-25T13:14:14.074Z,424.40
2022-11-25T13:19:13.069Z,424.10
2022-11-25T13:24:13.401Z,415.00
2022-11-25T13:29:13.724Z,444.70
2022-11-25T13:34:11.018Z,444.70
2022-11-25T13:39:10.331Z,444.70
2022-11-25T13:44:09.640Z,419.30
2022-11-25T13:49:08.974Z,420.40
2022-11-25T13:54:08.298Z,422.20
2022-11-25T13:59:07.597Z,392.10
2022-11-25T14:04:06.888Z,418.20
2022-11-25T14:09:09.175Z,412.50
2022-11-25T14:14:06.443Z,412.50
2022-11-25T14:19:50.582Z,455.70
2022-11-25T14:24:06.836Z,414.00
2022-11-25T14:29:08.224Z,403.90
2022-11-25T14:34:03.263Z,424.80
2022-11-25T14:39:01.582Z,401.80
2022-11-25T14:44:00.891Z,377.10
2022-11-25T14:49:00.209Z,376.70
2022-11-25T14:54:01.505Z,410.20
2022-11-25T14:58:59.798Z,452.40
2022-11-25T15:03:58.117Z,431.40
2022-11-25T15:08:57.424Z,417.00
2022-11-25T15:13:56.732Z,420.50
2022-11-25T15:18:56.081Z,412.80
2022-11-25T15:23:56.407Z,427.60
2022-11-25T15:28:55.702Z,413.30
2022-11-25T15:33:54.574Z,400.80
2022-11-25T15:38:53.256Z,417.10
2022-11-25T15:43:52.563Z,411.80
2022-11-25T15:48:52.888Z,384.60
2022-11-25T15:53:51.191Z,392.60
2022-11-25T15:58:50.475Z,428.00
2022-11-25T16:03:50.768Z,414.10
2022-11-25T16:08:49.035Z,406.30
2022-11-25T16:13:49.341Z,400.50
2022-11-25T16:18:48.681Z,387.10
2022-11-25T16:23:49.014Z,383.40
2022-11-25T16:28:46.117Z,400.40
2022-11-25T16:33:45.698Z,408.80
2022-11-25T16:38:45.758Z,403.90
2022-11-25T16:43:43.877Z,404.20
2022-11-25T16:48:43.919Z,404.80
2022-11-25T16:53:43.573Z,415.60
2022-11-25T16:58:41.769Z,436.20
2022-11-25T17:03:42.982Z,432.10
2022-11-25T17:08:40.054Z,419.80
2022-11-25T17:13:40.617Z,409.40
2022-11-25T17:18:38.623Z,416.60
2022-11-25T17:23:37.888Z,402.80
2022-11-25T17:28:38.315Z,408.00
2022-11-25T17:33:36.336Z,429.70
2022-11-25T17:38:35.453Z,408.80
2022-11-25T17:43:35.118Z,385.70
2022-11-25T17:48:34.369Z,417.20
2022-11-25T17:53:33.618Z,410.80
2022-11-25T17:58:32.678Z,385.10
2022-11-25T18:03:33.265Z,417.80
2022-11-25T18:08:31.229Z,348.10
2022-11-25T18:13:30.390Z,439.90
2022-11-25T18:18:31.541Z,353.20
2022-11-25T18:23:28.910Z,361.20
2022-11-25T18:28:28.103Z,417.70
2022-11-25T18:33:28.123Z,407.50
2022-11-25T18:38:26.448Z,423.30
2022-11-25T18:43:29.402Z,400.40
2022-11-25T18:48:25.899Z,391.90
2022-11-25T18:53:24.086Z,382.90
2022-11-25T18:58:24.383Z,265.30
2022-11-25T19:03:22.642Z,126.30
2022-11-25T19:08:22.861Z,96.40
2022-11-25T19:13:21.862Z,96.40
2022-11-25T19:18:20.310Z,96.40
2022-11-25T19:23:19.696Z,96.40
2022-11-25T19:28:18.991Z,96.40
2022-11-25T19:33:19.237Z,96.40
2022-11-25T19:38:17.514Z,96.40
2022-11-25T19:43:20.489Z,96.40
2022-11-25T19:48:18.900Z,96.40
2022-11-25T19:53:16.433Z,96.40
2022-11-25T19:58:14.617Z,96.40
2022-11-25T20:03:13.981Z,96.40
2022-11-25T20:08:13.024Z,96.40
2022-11-25T20:13:23.277Z,96.40
2022-11-25T20:18:17.791Z,96.40
2022-11-25T20:23:10.617Z,96.40
2022-11-25T20:28:09.856Z,96.40
2022-11-25T20:33:08.825Z,96.40
2022-11-25T20:38:08.537Z,96.40
2022-11-25T20:43:07.378Z,96.40
2022-11-25T20:48:06.930Z,96.40
2022-11-25T20:53:05.703Z,96.40
2022-11-25T20:58:06.282Z,96.40
2022-11-25T21:03:04.505Z,96.40
2022-11-25T21:08:04.487Z,96.40
2022-11-25T21:13:04.653Z,96.40
2022-11-25T21:18:02.883Z,96.40
2022-11-25T21:23:02.061Z,96.40
2022-11-25T21:28:01.246Z,96.40
2022-11-25T21:32:59.426Z,96.40
2022-11-25T21:37:58.832Z,96.40
2022-11-25T21:42:58.851Z,96.40
2022-11-25T21:47:58.028Z,96.40
2022-11-25T21:52:56.203Z,96.40
2022-11-25T21:57:56.402Z,96.40
2022-11-25T22:02:55.689Z,96.40
2022-11-25T22:07:55.837Z,96.40
2022-11-25T22:13:02.178Z,96.40
2022-11-25T22:17:52.331Z,96.40
2022-11-25T22:22:51.523Z,96.40
2022-11-25T22:27:50.706Z,96.40
2022-11-25T22:32:51.862Z,96.40
2022-11-25T22:37:54.777Z,96.40
2022-11-25T22:42:48.262Z,96.40
2022-11-25T22:47:48.440Z,96.40
2022-11-25T22:52:47.580Z,96.40
2022-11-25T22:57:44.746Z,96.40
2022-11-25T23:02:45.947Z,96.40
2022-11-25T23:07:44.182Z,96.40
2022-11-25T23:12:44.423Z,96.40
2022-11-25T23:17:42.582Z,96.40
2022-11-25T23:22:41.746Z,96.40
2022-11-25T23:27:41.898Z,96.40
2022-11-25T23:32:40.264Z,96.40
2022-11-25T23:37:41.461Z,96.40
2022-11-25T23:42:38.616Z,96.40
2022-11-25T23:47:37.824Z,96.40
2022-11-25T23:52:38.004Z,96.40
2022-11-25T23:57:36.196Z,96.40
